Flight Track Log - Related Links

Times and Time Zones

All times are in EDT time to prevent confusion due to time zone crossing. See the SWA1035 flight status page for this flight to view local times or setup timezone preferences in your user account.

Time Position Orientation Groundspeed Altitude Reporting Facility
EDT Latitude Longitude Course Direction KTS MPH feet Rate Location/Type
Tue 02:18:31 PM 39.2556 -94.8119 247° West 226 260 4,300  Level Kansas City Center
Tue 02:19:33 PM 39.2489 -94.9175 265° West 262 302 7,800 3,290 Climbing Kansas City Center
Tue 02:20:35 PM 39.2417 -95.0119 264° West 276 318 11,100 3,048 Climbing Kansas City Center
Tue 02:21:37 PM 39.2311 -95.1453 264° West 338 389 14,100 2,855 Climbing Kansas City Center
Tue 02:22:39 PM 39.2200 -95.2819 264° West 354 407 17,000 3,339 Climbing Kansas City Center
Tue 02:23:41 PM 39.2100 -95.4144 264° West 368 423 21,000 2,903 Climbing Kansas City Center
Tue 02:24:43 PM 39.1911 -95.5489 260° West 375 432 23,000 968 Climbing Kansas City Center
Tue 02:25:45 PM 39.1778 -95.6825 263° West 392 451 23,000 823 Level Kansas City Center
Tue 02:26:47 PM 39.1594 -95.8381 261° West 395 455 24,700 1,742 Climbing Kansas City Center
Tue 02:27:49 PM 39.1419 -95.9764 261° West 407 468 26,600 1,935 Climbing Kansas City Center
Tue 02:28:51 PM 39.1206 -96.1419 261° West 420 483 28,700 1,790 Climbing Kansas City Center
Tue 02:29:53 PM 39.0847 -96.2839 252° West 433 498 30,300 1,597 Climbing Kansas City Center
Tue 02:30:55 PM 39.0453 -96.4478 253° West 430 495 32,000 823 Climbing Kansas City Center
Tue 02:31:57 PM 39.0106 -96.5864 252° West 426 490 32,000  Level Kansas City Center
Tue 02:32:59 PM 38.9769 -96.7214 252° West 430 495 32,000  Level Kansas City Center
Tue 02:34:01 PM 38.9364 -96.8975 254° West 430 495 32,000 242 Level Kansas City Center
Tue 02:35:03 PM 38.9011 -97.0419 253° West 426 490 32,500 1,210 Climbing Kansas City Center
Tue 02:36:05 PM 38.8650 -97.1861 252° West 424 488 34,500 1,645 Climbing Kansas City Center
Tue 02:37:07 PM 38.8297 -97.3278 252° West 420 483 35,900 1,152 Climbing Kansas City Center
Tue 02:38:10 PM 38.7944 -97.4697 252° West 421 484 36,900 528 Climbing Kansas City Center
Tue 02:39:12 PM 38.7564 -97.6217 252° West 418 481 37,000 48 Climbing Kansas City Center
Tue 02:40:14 PM 38.7161 -97.7794 252° West 416 479 37,000  Level Kansas City Center
Tue 02:41:16 PM 38.6797 -97.9211 252° West 421 484 37,000  Level Kansas City Center
Tue 02:42:18 PM 38.6431 -98.0608 251° West 417 480 37,000  Level Kansas City Center
Tue 02:43:20 PM 38.6081 -98.2019 252° West 419 482 37,000  Level Kansas City Center
Tue 02:44:22 PM 38.5711 -98.3425 251° West 419 482 37,000  Level Kansas City Center
Tue 02:45:24 PM 38.5267 -98.5108 251° West 418 481 37,000  Level Kansas City Center
Tue 02:46:26 PM 38.4894 -98.6517 251° West 420 483 37,000  Level Kansas City Center
Tue 02:47:28 PM 38.4525 -98.7928 252° West 421 484 37,000  Level Kansas City Center
Tue 02:48:30 PM 38.4153 -98.9339 251° West 421 484 37,000 48 Level Kansas City Center
Tue 02:49:32 PM 38.3772 -99.0736 251° West 421 484 37,100 484 Climbing Kansas City Center
Tue 02:50:34 PM 38.3392 -99.2161 251° West 424 488 38,000 435 Climbing Kansas City Center
Tue 02:51:36 PM 38.2925 -99.3878 251° West 427 491 38,000  Level Kansas City Center
Tue 02:52:39 PM 38.2506 -99.5397 251° West 423 487 38,000  Level Kansas City Center
Tue 02:53:40 PM 38.2136 -99.6753 251° West 424 488 38,000  Level Kansas City Center
Tue 02:54:42 PM 38.1769 -99.8111 251° West 425 489 38,000  Level Kansas City Center
Tue 02:55:44 PM 38.1322 -99.9689 250° West 425 489 38,000  Level Kansas City Center
Tue 02:56:46 PM 38.0950 -100.1056 251° West 427 491 38,000  Level Kansas City Center
Tue 02:57:48 PM 38.0511 -100.2625 250° West 425 489 38,000  Level Kansas City Center
Tue 02:58:50 PM 38.0128 -100.3972 250° West 425 489 38,000  Level Kansas City Center
Tue 02:59:54 PM 37.9681 -100.5539 250° West 424 488 38,000  Level Kansas City Center
Tue 03:00:56 PM 37.9242 -100.7083 250° West 422 486 38,000  Level Kansas City Center
Tue 03:01:58 PM 37.8722 -100.8339 242° Southwest 423 487 38,000  Level Kansas City Center
Tue 03:03:00 PM 37.8094 -100.9775 241° Southwest 424 488 38,000  Level Kansas City Center
Tue 03:04:03 PM 37.7517 -101.1083 241° Southwest 425 489 38,000  Level Kansas City Center
Tue 03:05:05 PM 37.6917 -101.2453 241° Southwest 426 490 38,000  Level Kansas City Center
Tue 03:06:07 PM 37.6369 -101.3714 241° Southwest 428 493 38,000  Level Kansas City Center
Tue 03:07:09 PM 37.5719 -101.5172 241° Southwest 428 493 38,000  Level Kansas City Center
Tue 03:08:11 PM 37.5158 -101.6422 241° Southwest 430 495 38,000  Level Kansas City Center
Tue 03:09:13 PM 37.4508 -101.7886 241° Southwest 430 495 38,000  Level Kansas City Center
Tue 03:10:15 PM 37.3944 -101.9153 241° Southwest 432 497 38,000  Level Kansas City Center
Tue 03:11:17 PM 37.3278 -102.0617 240° Southwest 432 497 38,000  Level Kansas City Center
Tue 03:12:15 PM 37.2722 -102.1917 242° Southwest 429 494 38,000  Level Albuquerque Center
Tue 03:13:16 PM 37.2167 -102.3167 241° Southwest 428 493 38,000  Level Albuquerque Center
Tue 03:14:18 PM 37.1578 -102.4419 239° Southwest 433 498 38,000  Level Albuquerque Center
Tue 03:15:20 PM 37.0931 -102.5867 241° Southwest 427 491 38,000  Level Albuquerque Center
Tue 03:16:22 PM 37.0364 -102.7108 240° Southwest 428 493 38,000  Level Albuquerque Center
Tue 03:17:24 PM 36.9683 -102.8550 239° Southwest 429 494 38,000  Level Albuquerque Center
Tue 03:18:25 PM 36.9108 -102.9808 240° Southwest 432 497 38,000  Level Albuquerque Center
Tue 03:19:27 PM 36.8442 -103.1244 240° Southwest 429 494 38,000  Level Albuquerque Center
Tue 03:20:29 PM 36.7867 -103.2478 240° Southwest 428 493 38,000  Level Albuquerque Center
Tue 03:21:31 PM 36.7292 -103.3703 240° Southwest 426 490 38,000  Level Albuquerque Center
Tue 03:22:32 PM 36.6622 -103.5153 240° Southwest 429 494 38,000  Level Albuquerque Center
Tue 03:23:34 PM 36.5978 -103.6517 240° Southwest 429 494 38,000  Level Albuquerque Center
Tue 03:24:36 PM 36.5364 -103.7817 240° Southwest 431 496 38,000  Level Albuquerque Center
Tue 03:25:38 PM 36.4747 -103.9100 239° Southwest 430 495 38,000  Level Albuquerque Center
Tue 03:26:39 PM 36.4131 -104.0406 240° Southwest 433 498 38,000  Level Albuquerque Center
Tue 03:27:41 PM 36.3519 -104.1667 239° Southwest 428 493 38,000  Level Albuquerque Center
Tue 03:28:43 PM 36.2894 -104.2933 239° Southwest 429 494 38,000  Level Albuquerque Center
Tue 03:29:44 PM 36.2278 -104.4211 239° Southwest 430 495 38,000  Level Albuquerque Center
Tue 03:30:46 PM 36.1661 -104.5494 239° Southwest 431 496 38,000  Level Albuquerque Center
Tue 03:31:48 PM 36.0950 -104.6947 239° Southwest 424 488 38,000  Level Albuquerque Center
Tue 03:32:49 PM 36.0333 -104.8228 239° Southwest 430 495 38,000 -146 Level Albuquerque Center
Tue 03:33:51 PM 35.9692 -104.9522 244° Southwest 437 503 37,700 -585 Descending Albuquerque Center
Tue 03:34:00 PM 35.9531 -104.9507 244° Southwest  Level FlightAware Approximate
Tue 03:34:52 PM 35.9061 -105.0806 239° Southwest 436 502 36,800  Level Albuquerque Center
Tue 03:35:54 PM 35.8431 -105.2081 239° Southwest 434 499 35,800 -968 Descending Albuquerque Center
Tue 03:36:56 PM 35.7781 -105.3375 238° Southwest 438 504 34,800 -1,317 Descending Albuquerque Center
Tue 03:37:57 PM 35.7147 -105.4664 239° Southwest 439 505 33,100 -1,902 Descending Albuquerque Center
Tue 03:38:59 PM 35.6931 -105.5994 259° West 432 497 30,900 -2,274 Descending Albuquerque Center
Tue 03:40:01 PM 35.6747 -105.7608 262° West 405 466 28,400 -2,244 Descending Albuquerque Center
Tue 03:41:02 PM 35.6619 -105.8925 263° West 395 455 26,300 -1,951 Descending Albuquerque Center
Tue 03:42:04 PM 35.6508 -106.0206 264° West 381 438 24,400 -1,854 Descending Albuquerque Center
Tue 03:43:05 PM 35.6383 -106.1436 263° West 371 427 22,500 -1,854 Descending Albuquerque Center
Tue 03:44:07 PM 35.6267 -106.2664 263° West 365 420 20,600 -1,935 Descending Albuquerque Center
Tue 03:45:09 PM 35.6131 -106.3819 262° West 351 404 18,500 -2,250 Descending Albuquerque Center
Tue 03:45:51 PM 35.5711 -106.4603 237° Southwest 331 381 16,700 -2,164 Descending Albuquerque Center
Tue 03:46:10 PM 35.5633 -106.4781 242° Southwest 338 389 16,300 -1,875 Descending Albuquerque Center
Tue 03:46:39 PM 35.5317 -106.5408 238° Southwest 327 376 15,200 -2,032 Descending Albuquerque Center
Tue 03:47:12 PM 35.5081 -106.5947 242° Southwest 325 374 14,200 -1,279 Descending Albuquerque Center
Tue 03:47:40 PM 35.4836 -106.6317 231° Southwest 319 367 13,900 -1,161 Descending Albuquerque Center
Tue 03:48:14 PM 35.4428 -106.6567 207° Southwest 319 367 13,000 -1,475 Descending Albuquerque Center
Tue 03:48:41 PM 35.4064 -106.6778 205° Southwest 299 344 12,400 -1,161 Descending Albuquerque Center
Tue 03:49:16 PM 35.3697 -106.7003 207° Southwest 296 341 11,800 -1,000 Descending Albuquerque Center
Tue 03:49:41 PM 35.3428 -106.7306 223° Southwest 276 318 11,400 -787 Descending Albuquerque Center
Tue 03:50:17 PM 35.3175 -106.7658 229° Southwest 274 315 11,000 -885 Descending Albuquerque Center
Tue 03:50:42 PM 35.2944 -106.7950 226° Southwest 250 288 10,500 -1,065 Descending Albuquerque Center
Tue 03:51:19 PM 35.2711 -106.8275 229° Southwest 254 292 9,900 -1,082 Descending Albuquerque Center
Tue 03:51:43 PM 35.2336 -106.8264 179° South 259 298 9,400 -968 Descending Albuquerque Center
Tue 03:52:21 PM 35.2072 -106.7972 138° Southeast 267 307 8,900 -600 Descending Albuquerque Center
Tue 03:52:43 PM 35.1778 -106.7628 136° Southeast 274 315 8,800 -492 Descending Albuquerque Center
Tue 03:53:22 PM 35.1525 -106.7306 134° Southeast 271 312 8,400 -787 Descending Albuquerque Center
Tue 03:53:44 PM 35.1367 -106.6850 113° Southeast 281 323 8,000 -484 Descending Albuquerque Center
Tue 03:54:24 PM 35.1244 -106.6419 109° East 275 316 7,900 -100 Descending Albuquerque Center
Tue 03:54:44 PM 35.1097 -106.6036 115° Southeast 249 287 7,900 -97 Level Albuquerque Center
Tue 03:55:26 PM 35.1000 -106.5636 107° East 261 300 7,800 -689 Descending Albuquerque Center
Tue 03:55:45 PM 35.0864 -106.5319 118° Southeast 211 243 7,200 -1,279 Descending Albuquerque Center
Tue 03:56:27 PM 35.0597 -106.5122 149° Southeast 223 257 6,500 -885 Descending Albuquerque Center
Tue 03:56:46 PM 35.0467 -106.5239 216° Southwest 169 194 6,300 -774 Descending Albuquerque Center
Tue 03:57:29 PM 35.0439 -106.5572 264° West 185 213 5,700 -571 Descending Albuquerque Center
Tue 03:58:31 PM 35.0444 -106.6058 271° West 175 201 5,300 -387 Descending Albuquerque Center

Login

Don't have an account? Register now (free) for customized features, flight alerts, and more!